createdAt,value
2022-09-01T00:04:36.189Z,86.81
2022-09-01T00:09:39.724Z,94.89
2022-09-01T00:14:43.126Z,100.00
2022-09-01T00:19:45.555Z,100.00
2022-09-01T00:24:48.031Z,97.43
2022-09-01T00:29:50.487Z,99.40
2022-09-01T00:34:52.965Z,100.00
2022-09-01T00:39:55.607Z,100.00
2022-09-01T00:44:58.223Z,100.00
2022-09-01T00:50:00.710Z,100.00
2022-09-01T00:55:10.944Z,100.00
2022-09-01T01:00:18.848Z,100.00
2022-09-01T01:05:33.326Z,100.00
2022-09-01T01:10:41.796Z,100.00
2022-09-01T01:15:44.977Z,100.00
2022-09-01T01:21:08.756Z,100.00
2022-09-01T01:26:11.403Z,100.00
2022-09-01T01:31:18.620Z,100.00
2022-09-01T01:36:32.782Z,100.00
2022-09-01T01:41:41.061Z,100.00
2022-09-01T01:46:50.357Z,100.00
2022-09-01T01:51:56.295Z,100.00
2022-09-01T01:57:05.571Z,100.00
2022-09-01T02:02:08.852Z,100.00
2022-09-01T02:07:13.682Z,100.00
2022-09-01T02:12:19.569Z,100.00
2022-09-01T02:17:22.974Z,100.00
2022-09-01T02:22:25.868Z,100.00
2022-09-01T02:27:29.646Z,100.00
2022-09-01T02:32:32.196Z,100.00
2022-09-01T02:37:34.944Z,100.00
2022-09-01T02:42:41.050Z,100.00
2022-09-01T02:47:48.569Z,100.00
2022-09-01T02:52:52.462Z,100.00
2022-09-01T02:57:58.307Z,100.00
2022-09-01T03:03:02.644Z,100.00
2022-09-01T03:08:10.495Z,100.00
2022-09-01T03:13:20.671Z,100.00
2022-09-01T03:18:23.853Z,100.00
2022-09-01T03:23:28.178Z,100.00
2022-09-01T03:28:32.012Z,100.00
2022-09-01T03:33:36.611Z,100.00
2022-09-01T03:38:44.251Z,100.00
2022-09-01T03:43:48.375Z,100.00
2022-09-01T03:48:55.163Z,100.00
2022-09-01T03:53:59.122Z,100.00
2022-09-01T03:59:02.431Z,100.00
2022-09-01T04:04:06.768Z,100.00
2022-09-01T04:09:10.970Z,100.00
2022-09-01T04:14:16.062Z,100.00
2022-09-01T04:19:25.741Z,100.00
2022-09-01T04:24:31.873Z,100.00
2022-09-01T04:29:34.681Z,100.00
2022-09-01T04:34:40.091Z,100.00
2022-09-01T04:39:53.751Z,100.00
2022-09-01T04:45:00.099Z,100.00
2022-09-01T04:50:14.358Z,100.00
2022-09-01T04:55:20.109Z,100.00
2022-09-01T05:00:24.454Z,100.00
2022-09-01T05:05:27.594Z,100.00
2022-09-01T05:10:33.430Z,100.00
2022-09-01T05:15:48.580Z,100.00
2022-09-01T05:20:53.121Z,96.99
2022-09-01T05:25:56.298Z,92.50
2022-09-01T05:31:02.252Z,91.11
2022-09-01T05:36:08.454Z,88.90
2022-09-01T05:41:16.980Z,88.72
2022-09-01T05:46:22.879Z,90.22
2022-09-01T05:51:46.058Z,88.62
2022-09-01T05:56:53.731Z,87.03
2022-09-01T06:02:01.009Z,89.45
2022-09-01T06:07:10.206Z,87.91
2022-09-01T06:12:18.978Z,90.59
2022-09-01T06:17:25.547Z,92.33
2022-09-01T06:22:29.252Z,92.93
2022-09-01T06:27:41.276Z,87.33
2022-09-01T06:32:45.061Z,86.53
2022-09-01T06:37:48.626Z,84.44
2022-09-01T06:43:09.163Z,82.28
2022-09-01T06:48:16.090Z,86.05
2022-09-01T06:53:35.224Z,83.49
2022-09-01T06:58:47.592Z,78.97
2022-09-01T07:03:53.131Z,81.42
2022-09-01T07:21:35.953Z,77.71
2022-09-01T07:26:07.185Z,75.13
2022-09-01T07:42:31.192Z,77.18
2022-09-01T07:48:03.605Z,68.80
2022-09-01T07:53:11.199Z,68.36
2022-09-01T07:58:15.188Z,69.27
2022-09-01T08:03:23.018Z,72.01
2022-09-01T08:08:28.889Z,71.80
2022-09-01T08:13:41.790Z,75.03
2022-09-01T08:18:48.555Z,72.38
2022-09-01T08:24:04.410Z,79.43
2022-09-01T08:29:11.631Z,76.76
2022-09-01T08:34:18.131Z,74.63
2022-09-01T08:39:21.464Z,78.01
2022-09-01T08:44:54.783Z,73.46
2022-09-01T08:49:59.221Z,76.85
2022-09-01T08:55:40.244Z,78.97
2022-09-01T09:00:54.870Z,80.71
2022-09-01T09:06:08.473Z,82.98
2022-09-01T09:11:39.012Z,80.36
2022-09-01T09:16:53.912Z,72.03
2022-09-01T09:21:59.008Z,74.23
2022-09-01T09:27:02.305Z,74.51
2022-09-01T09:32:22.651Z,75.45
2022-09-01T09:37:31.263Z,77.76
2022-09-01T09:42:36.535Z,76.60
2022-09-01T09:47:44.811Z,68.93
2022-09-01T09:52:48.797Z,66.29
2022-09-01T09:57:54.790Z,67.03
2022-09-01T10:03:19.109Z,63.26
2022-09-01T10:08:27.508Z,62.52
2022-09-01T10:13:35.584Z,59.63
2022-09-01T10:18:45.455Z,61.88
2022-09-01T10:23:48.230Z,61.58
2022-09-01T10:29:06.496Z,64.01
2022-09-01T10:34:15.283Z,58.17
2022-09-01T10:39:22.201Z,62.40
2022-09-01T10:44:54.615Z,62.72
2022-09-01T10:49:59.890Z,49.86
2022-09-01T10:55:06.531Z,56.59
2022-09-01T11:00:39.842Z,58.70
2022-09-01T11:06:11.045Z,56.98
2022-09-01T11:11:20.217Z,54.06
2022-09-01T11:16:47.059Z,50.63
2022-09-01T11:22:10.374Z,50.70
2022-09-01T11:27:33.958Z,56.88
2022-09-01T11:32:38.474Z,53.96
2022-09-01T11:37:42.043Z,52.55
2022-09-01T11:42:46.697Z,45.15
2022-09-01T11:48:11.507Z,47.01
2022-09-01T11:53:24.153Z,40.16
2022-09-01T11:58:34.616Z,42.01
2022-09-01T12:03:37.289Z,48.94
2022-09-01T12:08:42.931Z,53.07
2022-09-01T12:14:07.672Z,52.11
2022-09-01T12:19:25.881Z,52.60
2022-09-01T12:24:31.427Z,56.13
2022-09-01T12:29:34.544Z,58.35
2022-09-01T12:34:39.929Z,58.79
2022-09-01T12:39:54.936Z,59.55
2022-09-01T12:45:00.256Z,61.12
2022-09-01T12:50:03.469Z,59.32
2022-09-01T12:55:06.362Z,56.27
2022-09-01T13:00:12.581Z,52.27
2022-09-01T13:05:38.702Z,48.05
2022-09-01T13:10:54.318Z,41.76
2022-09-01T13:16:04.409Z,38.93
2022-09-01T13:21:07.771Z,38.51
2022-09-01T13:26:11.458Z,44.26
2022-09-01T13:31:30.155Z,39.06
2022-09-01T13:36:52.038Z,40.67
2022-09-01T13:41:54.732Z,40.67
2022-09-01T13:47:00.967Z,37.84
2022-09-01T13:52:19.711Z,38.22
2022-09-01T13:57:22.270Z,43.24
2022-09-01T14:02:26.393Z,39.81
2022-09-01T14:07:30.570Z,37.75
2022-09-01T14:12:33.026Z,38.59
2022-09-01T14:17:36.607Z,37.21
2022-09-01T14:22:42.596Z,36.00
2022-09-01T14:27:45.899Z,38.26
2022-09-01T14:32:52.251Z,40.32
2022-09-01T14:37:56.355Z,39.08
2022-09-01T14:42:58.857Z,40.17
2022-09-01T14:48:01.571Z,44.29
2022-09-01T14:53:04.268Z,43.17
2022-09-01T14:58:06.810Z,40.74
2022-09-01T15:03:09.939Z,41.14
2022-09-01T15:08:17.432Z,42.29
2022-09-01T15:13:20.314Z,39.92
2022-09-01T15:18:22.977Z,41.23
2022-09-01T15:23:26.732Z,38.83
2022-09-01T15:28:29.229Z,40.84
2022-09-01T15:33:31.669Z,42.11
2022-09-01T15:38:34.243Z,44.12
2022-09-01T15:43:37.067Z,44.07
2022-09-01T15:48:40.174Z,46.08
2022-09-01T15:53:42.935Z,47.12
2022-09-01T15:59:00.680Z,46.78
2022-09-01T16:04:06.196Z,48.13
2022-09-01T16:09:09.311Z,46.18
2022-09-01T16:14:12.121Z,46.94
2022-09-01T16:19:38.594Z,50.62
2022-09-01T16:24:50.434Z,49.62
2022-09-01T16:29:58.292Z,50.51
2022-09-01T16:35:04.248Z,48.59
2022-09-01T16:40:21.765Z,49.91
2022-09-01T16:45:51.471Z,53.88
2022-09-01T16:51:15.398Z,50.59
2022-09-01T16:56:32.665Z,51.27
2022-09-01T17:02:02.488Z,52.75
2022-09-01T17:07:35.216Z,53.57
2022-09-01T17:12:51.101Z,54.82
2022-09-01T17:18:22.199Z,53.40
2022-09-01T17:23:29.862Z,57.10
2022-09-01T17:28:55.398Z,54.41
2022-09-01T17:34:15.974Z,54.06
2022-09-01T17:39:38.727Z,54.29
2022-09-01T17:44:59.836Z,54.56
2022-09-01T17:50:09.596Z,54.42
2022-09-01T17:55:33.736Z,53.99
2022-09-01T18:00:46.614Z,55.42
2022-09-01T18:06:03.322Z,54.33
2022-09-01T18:11:15.751Z,55.04
2022-09-01T18:16:25.415Z,55.32
2022-09-01T18:21:35.650Z,55.37
2022-09-01T18:26:41.571Z,55.40
2022-09-01T18:31:45.453Z,56.42
2022-09-01T18:37:08.838Z,56.76
2022-09-01T18:42:31.928Z,57.28
2022-09-01T18:48:01.991Z,57.20
2022-09-01T18:53:22.163Z,59.35
2022-09-01T18:58:27.411Z,60.01
2022-09-01T19:03:38.795Z,60.41
2022-09-01T19:09:06.800Z,61.46
2022-09-01T19:19:54.418Z,68.23
2022-09-01T19:25:26.443Z,62.53
2022-09-01T19:30:28.999Z,64.93
2022-09-01T19:35:36.602Z,61.93
2022-09-01T19:40:43.690Z,64.48
2022-09-01T19:45:59.418Z,62.78
2022-09-01T19:51:09.016Z,63.38
2022-09-01T19:56:29.782Z,63.14
2022-09-01T20:02:05.310Z,64.02
2022-09-01T20:07:37.639Z,62.91
2022-09-01T20:13:03.577Z,66.90
2022-09-01T20:18:21.794Z,69.63
2022-09-01T20:23:36.748Z,71.49
2022-09-01T20:28:55.300Z,71.93
2022-09-01T20:34:11.775Z,72.48
2022-09-01T20:39:50.272Z,73.06
2022-09-01T20:44:57.783Z,71.71
2022-09-01T20:50:02.015Z,70.50
2022-09-01T20:55:25.714Z,70.53
2022-09-01T21:00:30.173Z,73.66
2022-09-01T21:06:04.337Z,68.42
2022-09-01T21:11:30.881Z,63.46
2022-09-01T21:16:48.531Z,67.14
2022-09-01T21:22:02.863Z,62.68
2022-09-01T21:27:19.720Z,66.04
2022-09-01T21:32:22.886Z,68.97
2022-09-01T21:37:27.036Z,69.74
2022-09-01T21:42:54.524Z,64.26
2022-09-01T21:47:57.058Z,63.59
2022-09-01T21:52:59.634Z,65.48
2022-09-01T21:58:02.918Z,63.58
2022-09-01T22:03:06.739Z,69.25
2022-09-01T22:08:12.228Z,64.68
2022-09-01T22:13:15.909Z,70.67
2022-09-01T22:18:20.426Z,74.02
2022-09-01T22:23:23.067Z,69.15
2022-09-01T22:28:26.362Z,70.01
2022-09-01T22:33:29.785Z,66.58
2022-09-01T22:38:33.131Z,70.93
2022-09-01T22:43:35.571Z,69.68
2022-09-01T22:48:38.230Z,71.70
2022-09-01T22:53:43.008Z,65.85
2022-09-01T22:58:45.494Z,67.46
2022-09-01T23:03:48.712Z,66.63
2022-09-01T23:08:55.726Z,68.34
2022-09-01T23:13:58.553Z,74.27
2022-09-01T23:19:01.182Z,74.70
2022-09-01T23:24:04.434Z,66.53
2022-09-01T23:29:06.929Z,66.47
2022-09-01T23:34:09.750Z,69.75
2022-09-01T23:39:12.196Z,73.18
2022-09-01T23:44:16.022Z,78.47
2022-09-01T23:49:19.455Z,79.33
2022-09-01T23:54:22.692Z,74.10
2022-09-01T23:59:27.524Z,69.22
